KMRC/MRC METAR and TAF weather

Enter ICAO airport designator
Station Type Date Time Source
KMRC METAR 2021/01/17 18:55 UTC NOAA

KMRC 171855Z AUTO 25008G21KT 10SM BKN055 BKN065 09/M05 A2982 RMK A01


Station Type Date Time Source
KMRC Decoded METAR 2021/01/17 18:55 UTC NOAA

Columbia / Maury County, TN, United States (KMRC) 35-33N 087-11W
Jan 17, 2021 - 01:55 PM EST / 2021.01.17 1855 UTC
Wind: from the WSW (250 degrees) at 9 MPH (8 KT) gusting to 24 MPH (21 KT):0
Visibility: 10 mile(s):0
Sky conditions: mostly cloudy
Temperature: 48 F (9 C)
Dew Point: 23 F (-5 C)
Relative Humidity: 36%
Pressure (altimeter): 29.82 in. Hg (1009 hPa)
ob: KMRC 171855Z AUTO 25008G21KT 10SM BKN055 BKN065 09/M05 A2982 RMK A01
cycle: 19

Station Type Date Time Source
KMRC TAF 2009/08/31 19:45 UTC NOAA

METAR KMRC 311945Z AUTO 06008KT 10SM CLR 26/12 A3010
RMK AO1 T02550116 $

Example: see airport list